KEVB/EVB METAR and TAF weather

Enter ICAO airport designator
Station Type Date Time Source
KEVB METAR 2019/06/27 01:47 UTC NOAA

KEVB 270147Z 08003KT 10SM CLR 27/23 A3012 RMK LAST


Station Type Date Time Source
KEVB Decoded METAR 2019/06/27 01:47 UTC NOAA

New Smyrna Beach, New Smyrna Beach Municipal Airport, FL, United States (KEVB) 29-03-20N 080-56-54W
Jun 26, 2019 - 09:47 PM EDT / 2019.06.27 0147 UTC
Wind: from the E (080 degrees) at 3 MPH (3 KT):0
Visibility: 10 mile(s):0
Sky conditions: clear
Temperature: 80 F (27 C)
Dew Point: 73 F (23 C)
Relative Humidity: 78%
Pressure (altimeter): 30.12 in. Hg (1019 hPa)
ob: KEVB 270147Z 08003KT 10SM CLR 27/23 A3012 RMK LAST
cycle: 2

Station Type Date Time Source
KEVB TAF UTC NOAA

Error!

Example: see airport list